Time;durP1;ratioP1;P1;durP2;ratioP2;P2;SDS_P1;SDS_P2;PMS_P1;PMS_P2;Temp;Humidity;BMP_temperature;BMP_pressure;BME280_temperature;BME280_humidity;BME280_pressure;Samples;Min_cycle;Max_cycle;Signal;HPM_P1;HPM_P2
2021/10/23 00:00:50;;;;;;;940.73;852.07;;;7.50;99.90;;;;;;5033739;28;20842;-93
2021/10/23 00:03:20;;;;;;;927.10;836.83;;;7.40;99.90;;;;;;5034895;28;20519;-93
2021/10/23 00:05:47;;;;;;;978.53;885.03;;;7.40;99.90;;;;;;5034743;28;20495;-92
2021/10/23 00:08:15;;;;;;;989.00;894.83;;;7.40;99.90;;;;;;5034703;28;20526;-93
2021/10/23 00:10:42;;;;;;;997.03;902.03;;;7.40;99.90;;;;;;5034783;28;20522;-93
2021/10/23 00:13:09;;;;;;;979.07;884.67;;;7.50;99.90;;;;;;5034723;28;20457;-93
2021/10/23 00:15:38;;;;;;;946.80;852.63;;;7.70;99.90;;;;;;5033344;28;20468;-92
2021/10/23 00:18:07;;;;;;;961.07;866.07;;;7.80;99.90;;;;;;5034208;28;20456;-93
2021/10/23 00:20:34;;;;;;;965.03;870.43;;;7.80;99.90;;;;;;5034482;28;20463;-93
2021/10/23 00:23:02;;;;;;;979.57;885.67;;;8.00;99.90;;;;;;5034192;28;20495;-93
2021/10/23 00:25:29;;;;;;;974.83;881.87;;;7.90;99.90;;;;;;5049429;28;20546;-93
2021/10/23 00:27:58;;;;;;;963.20;869.80;;;7.80;99.90;;;;;;5054055;28;20492;-93
2021/10/23 00:30:25;;;;;;;968.70;876.10;;;7.80;99.90;;;;;;5053262;28;20475;-93
2021/10/23 00:32:52;;;;;;;968.60;875.00;;;7.80;99.90;;;;;;5054120;28;20463;-93
2021/10/23 00:35:20;;;;;;;965.47;872.70;;;7.90;99.90;;;;;;5053920;28;20491;-93
2021/10/23 00:37:47;;;;;;;967.57;874.00;;;8.00;99.90;;;;;;5053995;28;20462;-91
2021/10/23 00:40:14;;;;;;;961.73;867.40;;;8.10;99.90;;;;;;5053939;28;20479;-93
2021/10/23 00:42:41;;;;;;;960.33;866.90;;;8.00;99.90;;;;;;5053541;28;20572;-93
2021/10/23 00:45:09;;;;;;;970.13;876.33;;;8.20;99.90;;;;;;5052886;28;20697;-94
2021/10/23 00:47:37;;;;;;;951.30;859.47;;;8.30;99.90;;;;;;5018919;28;20455;-92
2021/10/23 00:50:05;;;;;;;931.47;840.13;;;8.40;99.90;;;;;;5053656;28;20529;-92
2021/10/23 00:52:34;;;;;;;923.67;834.63;;;8.40;99.90;;;;;;5053124;28;20543;-91
2021/10/23 00:55:02;;;;;;;937.30;849.83;;;8.50;99.90;;;;;;5053466;28;20865;-93
2021/10/23 00:57:29;;;;;;;917.00;831.97;;;8.50;99.90;;;;;;5053518;28;21024;-94
2021/10/23 00:59:58;;;;;;;917.43;832.73;;;8.60;99.90;;;;;;5053538;28;20451;-94
2021/10/23 01:02:25;;;;;;;914.97;831.67;;;8.50;99.90;;;;;;5053455;28;20510;-93
2021/10/23 01:04:53;;;;;;;896.73;816.03;;;8.60;99.90;;;;;;5070051;28;20490;-89
2021/10/23 01:07:20;;;;;;;894.30;814.87;;;8.70;99.90;;;;;;5073769;28;20539;-95
2021/10/23 01:09:48;;;;;;;898.17;820.10;;;8.70;99.90;;;;;;5073471;28;20853;-94
2021/10/23 01:12:15;;;;;;;906.70;829.13;;;8.70;99.90;;;;;;5073268;28;20541;-94
2021/10/23 01:14:45;;;;;;;898.17;822.33;;;8.70;99.90;;;;;;5073062;28;20459;-92
2021/10/23 01:17:12;;;;;;;902.40;826.80;;;8.50;99.90;;;;;;5072606;28;20512;-89
2021/10/23 01:19:39;;;;;;;877.97;805.37;;;8.60;99.90;;;;;;5073250;28;20458;-92
2021/10/23 01:22:08;;;;;;;878.93;806.07;;;8.60;99.90;;;;;;5073068;28;20582;-93
2021/10/23 01:24:35;;;;;;;884.20;811.70;;;8.50;99.90;;;;;;5065437;28;20447;-94
2021/10/23 01:27:02;;;;;;;894.10;820.13;;;8.50;99.90;;;;;;5053373;28;20456;-94
2021/10/23 01:29:29;;;;;;;882.10;809.30;;;8.60;99.90;;;;;;5053130;28;20513;-93
2021/10/23 01:31:56;;;;;;;880.37;807.27;;;8.50;99.90;;;;;;5052421;28;20456;-92
2021/10/23 01:34:29;;;;;;;883.27;809.73;;;8.50;99.90;;;;;;5053106;28;20877;-95
2021/10/23 01:36:59;;;;;;;895.57;820.67;;;8.60;99.90;;;;;;5052756;28;20490;-93
2021/10/23 01:39:28;;;;;;;893.47;818.63;;;8.50;99.90;;;;;;5053345;28;20559;-94
2021/10/23 01:41:57;;;;;;;902.90;827.30;;;8.50;99.90;;;;;;5052914;28;20515;-92
2021/10/23 01:44:28;;;;;;;904.80;828.27;;;8.50;99.90;;;;;;5053110;28;20544;-95
2021/10/23 01:46:54;;;;;;;911.07;834.03;;;8.50;99.90;;;;;;5052124;28;20455;-93
2021/10/23 01:49:21;;;;;;;919.73;842.57;;;8.60;99.90;;;;;;5052996;28;20464;-94
2021/10/23 01:51:49;;;;;;;912.80;835.13;;;8.60;99.90;;;;;;5052742;28;20487;-92
2021/10/23 01:54:16;;;;;;;902.03;824.17;;;8.60;99.90;;;;;;5053180;28;20452;-89
2021/10/23 01:56:45;;;;;;;919.57;841.10;;;8.60;99.90;;;;;;5053016;28;20456;-94
2021/10/23 01:59:12;;;;;;;926.00;847.97;;;8.50;99.90;;;;;;5052576;28;20474;-94
2021/10/23 02:01:39;;;;;;;918.97;841.73;;;8.50;99.90;;;;;;5051814;28;20479;-90
2021/10/23 02:04:06;;;;;;;927.70;848.27;;;8.40;99.90;;;;;;5054972;28;20578;-93
2021/10/23 02:06:33;;;;;;;926.60;846.53;;;8.50;99.90;;;;;;5056730;28;20455;-94
2021/10/23 02:09:02;;;;;;;922.80;843.30;;;8.40;99.90;;;;;;5056885;28;20451;-93
2021/10/23 02:11:29;;;;;;;924.27;844.43;;;8.30;99.90;;;;;;5056764;28;20482;-94
2021/10/23 02:13:57;;;;;;;924.80;843.00;;;8.40;99.90;;;;;;5056883;28;20966;-94
2021/10/23 02:16:24;;;;;;;925.47;842.27;;;8.30;99.90;;;;;;5055963;28;20495;-94
2021/10/23 02:18:51;;;;;;;924.20;840.80;;;8.20;99.90;;;;;;5056516;28;20447;-92
2021/10/23 02:21:18;;;;;;;940.50;854.53;;;8.20;99.90;;;;;;5056720;28;20942;-92
2021/10/23 02:23:45;;;;;;;937.67;851.47;;;8.10;99.90;;;;;;5057369;28;20553;-94
2021/10/23 02:26:13;;;;;;;940.03;852.33;;;8.10;99.90;;;;;;5076529;28;20545;-94
2021/10/23 02:28:40;;;;;;;951.93;862.60;;;8.00;99.90;;;;;;5076378;28;20454;-91
2021/10/23 02:31:08;;;;;;;953.73;864.00;;;8.00;99.90;;;;;;5075393;28;20516;-87
2021/10/23 02:33:35;;;;;;;959.93;867.57;;;8.00;99.90;;;;;;5076314;28;20829;-92
2021/10/23 02:36:02;;;;;;;974.07;880.67;;;8.10;99.90;;;;;;5076160;28;20512;-95
2021/10/23 02:38:30;;;;;;;975.30;881.00;;;7.90;99.90;;;;;;5076450;28;20454;-93
2021/10/23 02:40:57;;;;;;;969.70;874.63;;;7.90;99.90;;;;;;5076321;28;20457;-95
2021/10/23 02:43:24;;;;;;;990.27;894.07;;;7.80;99.90;;;;;;5075905;28;20482;-92
2021/10/23 02:45:51;;;;;;;1001.87;904.60;;;7.90;99.90;;;;;;5075084;28;20524;-93
2021/10/23 02:48:20;;;;;;;1004.73;906.17;;;7.90;99.90;;;;;;5076253;28;20569;-90
2021/10/23 02:50:47;;;;;;;1000.57;901.00;;;7.90;99.90;;;;;;5075938;28;20838;-89
2021/10/23 02:53:16;;;;;;;1003.97;903.30;;;7.90;99.90;;;;;;5075961;28;20934;-94
2021/10/23 02:55:42;;;;;;;1005.37;905.57;;;7.80;99.90;;;;;;5076156;28;20458;-92
2021/10/23 02:58:12;;;;;;;990.33;889.43;;;7.80;99.90;;;;;;5071130;28;20867;-93
2021/10/23 03:00:39;;;;;;;1004.97;903.97;;;7.80;99.90;;;;;;5043925;28;20933;-93
2021/10/23 03:03:07;;;;;;;1015.27;912.90;;;7.90;99.90;;;;;;5056437;28;20479;-90
2021/10/23 03:05:35;;;;;;;1018.67;917.10;;;7.90;99.90;;;;;;5056048;28;20448;-90
2021/10/23 03:08:02;;;;;;;1013.70;912.30;;;7.90;99.90;;;;;;5056035;28;20851;-93
2021/10/23 03:10:29;;;;;;;1018.43;915.20;;;7.90;99.90;;;;;;5055663;28;20451;-93
2021/10/23 03:12:56;;;;;;;1012.70;908.97;;;8.00;99.90;;;;;;5055572;28;20455;-94
2021/10/23 03:15:23;;;;;;;1026.03;923.23;;;8.10;99.90;;;;;;5053763;28;20501;-93
2021/10/23 03:17:50;;;;;;;1036.47;933.80;;;8.10;99.90;;;;;;5055509;28;20497;-93
2021/10/23 03:20:19;;;;;;;1019.60;917.23;;;8.20;99.90;;;;;;5055603;28;20451;-94
2021/10/23 03:22:47;;;;;;;1020.00;917.83;;;8.20;99.90;;;;;;5055154;28;20483;-94
2021/10/23 03:25:14;;;;;;;1023.23;921.33;;;8.20;99.90;;;;;;5042120;28;20531;-93
2021/10/23 03:27:41;;;;;;;1023.43;921.67;;;8.20;99.90;;;;;;5035532;28;20472;-94
2021/10/23 03:30:09;;;;;;;1026.27;923.87;;;8.40;99.90;;;;;;5034275;28;20449;-93
2021/10/23 03:32:38;;;;;;;1021.67;921.40;;;8.30;99.90;;;;;;5035201;28;20917;-91
2021/10/23 03:35:07;;;;;;;1036.63;937.50;;;8.20;99.90;;;;;;5035349;28;20547;-91
2021/10/23 03:37:35;;;;;;;1025.40;926.70;;;8.10;99.90;;;;;;5035140;28;20468;-84
2021/10/23 03:40:06;;;;;;;1008.23;910.40;;;8.20;99.90;;;;;;5035081;28;20951;-94
2021/10/23 03:42:33;;;;;;;1008.50;911.00;;;8.00;99.90;;;;;;5028043;28;20524;-82
2021/10/23 03:45:00;;;;;;;1011.53;913.50;;;8.00;99.90;;;;;;5033711;28;20448;-80
2021/10/23 03:47:27;;;;;;;1005.53;906.27;;;8.00;99.90;;;;;;5035041;28;20471;-89
2021/10/23 03:50:04;;;;;;;1010.73;912.10;;;7.90;99.90;;;;;;5035740;28;20444;-91
2021/10/23 03:52:31;;;;;;;1000.33;900.57;;;8.00;99.90;;;;;;5035384;28;20456;-90
2021/10/23 03:54:58;;;;;;;1005.60;906.17;;;7.90;99.90;;;;;;5035008;28;20460;-93
2021/10/23 03:57:26;;;;;;;1005.70;907.17;;;7.90;99.90;;;;;;5044001;28;20543;-88
2021/10/23 03:59:55;;;;;;;1002.83;904.90;;;8.10;99.90;;;;;;5054503;28;20482;-84
2021/10/23 04:02:24;;;;;;;994.00;895.47;;;8.00;99.90;;;;;;5054237;28;20486;-94
2021/10/23 04:04:51;;;;;;;995.67;898.57;;;8.00;99.90;;;;;;5054441;28;20541;-93
2021/10/23 04:07:20;;;;;;;1005.07;906.80;;;8.00;99.90;;;;;;5054421;28;20867;-92
2021/10/23 04:09:49;;;;;;;1005.50;908.10;;;8.10;99.90;;;;;;5054454;28;20501;-93
2021/10/23 04:12:22;;;;;;;999.43;901.33;;;8.10;99.90;;;;;;5054500;28;20474;-93
2021/10/23 04:14:50;;;;;;;998.27;898.70;;;8.00;99.90;;;;;;5054670;28;20839;-93
2021/10/23 04:17:23;;;;;;;1001.57;902.77;;;8.10;99.90;;;;;;5053699;28;20451;-88
2021/10/23 04:19:52;;;;;;;1005.43;905.87;;;8.10;99.90;;;;;;5056152;28;20443;-94
2021/10/23 04:22:37;;;;;;;1005.97;908.77;;;8.10;99.90;;;;;;5055322;28;20479;-86
2021/10/23 04:25:06;;;;;;;995.20;896.97;;;8.00;99.90;;;;;;5065692;28;20610;-85
2021/10/23 04:27:33;;;;;;;994.53;898.03;;;8.00;99.90;;;;;;5074125;28;20446;-83
2021/10/23 04:30:01;;;;;;;1000.67;903.60;;;7.90;99.90;;;;;;5072999;28;20508;-77
2021/10/23 04:32:28;;;;;;;1014.47;916.67;;;7.80;99.90;;;;;;5073867;28;20450;-87
2021/10/23 04:34:55;;;;;;;1022.47;924.33;;;7.80;99.90;;;;;;5073819;28;20457;-85
2021/10/23 04:37:22;;;;;;;1007.30;909.73;;;7.80;99.90;;;;;;5074576;28;20552;-94
2021/10/23 04:39:49;;;;;;;999.50;902.07;;;7.50;99.90;;;;;;5075203;28;20467;-93
2021/10/23 04:42:16;;;;;;;1008.27;909.47;;;7.50;99.90;;;;;;5073770;28;20470;-92
2021/10/23 04:44:43;;;;;;;1000.53;899.10;;;7.30;99.90;;;;;;5073756;28;20938;-93
2021/10/23 04:47:13;;;;;;;1014.33;911.73;;;7.30;99.90;;;;;;5072705;28;20485;-89
2021/10/23 04:49:44;;;;;;;1009.57;906.87;;;7.40;99.90;;;;;;5074372;28;20474;-89
2021/10/23 04:52:13;;;;;;;1023.33;917.50;;;7.30;99.90;;;;;;5073250;28;20462;-91
2021/10/23 04:54:40;;;;;;;1041.70;936.43;;;7.30;99.90;;;;;;5033901;28;20528;-95
2021/10/23 04:57:07;;;;;;;1020.60;914.23;;;7.10;99.90;;;;;;5034057;28;20811;-93
2021/10/23 04:59:34;;;;;;;1029.17;922.10;;;7.00;99.90;;;;;;5033465;28;20448;-93
2021/10/23 05:02:01;;;;;;;1025.90;918.20;;;7.00;99.90;;;;;;5032963;28;20892;-92
2021/10/23 05:04:29;;;;;;;1037.80;928.53;;;6.90;99.90;;;;;;5033515;28;20504;-94
2021/10/23 05:06:57;;;;;;;1054.60;945.33;;;6.90;99.90;;;;;;5033598;28;20460;-94
2021/10/23 05:09:31;;;;;;;1064.30;953.93;;;6.80;99.90;;;;;;5033911;28;20456;-92
2021/10/23 05:12:04;;;;;;;1055.87;946.17;;;6.70;99.90;;;;;;5034509;28;20499;-91
2021/10/23 05:14:36;;;;;;;1055.33;943.70;;;6.80;99.90;;;;;;5033556;28;20838;-80
2021/10/23 05:17:03;;;;;;;1073.10;959.70;;;6.70;99.90;;;;;;5032280;28;20452;-94
2021/10/23 05:19:31;;;;;;;1071.80;958.40;;;6.60;99.90;;;;;;5033896;28;20512;-93
2021/10/23 05:21:58;;;;;;;1074.37;960.37;;;6.60;99.90;;;;;;5034134;28;20489;-94
2021/10/23 05:24:27;;;;;;;1096.67;983.07;;;6.80;99.90;;;;;;5046514;28;20514;-91
2021/10/23 05:26:54;;;;;;;1082.83;969.83;;;6.70;99.90;;;;;;5075259;28;20458;-93
2021/10/23 05:29:21;;;;;;;1076.07;961.27;;;6.70;99.90;;;;;;5073506;28;20812;-93
2021/10/23 05:31:48;;;;;;;1092.47;978.17;;;6.80;99.90;;;;;;5072396;28;20451;-92
2021/10/23 05:34:17;;;;;;;1091.80;977.47;;;6.70;99.90;;;;;;5073558;28;20489;-92
2021/10/23 05:36:56;;;;;;;1098.07;982.47;;;6.70;99.90;;;;;;5076075;28;20453;-90
2021/10/23 05:39:28;;;;;;;1130.83;999.90;;;6.80;99.90;;;;;;5073276;28;20537;-92
2021/10/23 05:41:57;;;;;;;1114.67;999.80;;;6.70;99.90;;;;;;5073715;28;20528;-93
2021/10/23 05:44:24;;;;;;;1099.07;982.80;;;6.90;99.90;;;;;;5074035;28;20513;-94
2021/10/23 05:46:51;;;;;;;1102.00;985.50;;;6.90;99.90;;;;;;5073433;28;20888;-91
2021/10/23 05:49:19;;;;;;;1113.60;996.33;;;6.80;99.90;;;;;;5073731;28;20458;-92
2021/10/23 05:51:48;;;;;;;1104.40;988.83;;;6.80;99.90;;;;;;5072760;28;21149;-93
2021/10/23 05:54:16;;;;;;;1129.10;999.90;;;6.80;99.90;;;;;;5073842;28;20813;-94
2021/10/23 05:56:49;;;;;;;1117.03;999.90;;;6.80;99.90;;;;;;5073171;28;20545;-89
2021/10/23 05:59:16;;;;;;;1123.50;999.90;;;6.70;99.90;;;;;;5056532;28;20443;-90
2021/10/23 06:01:46;;;;;;;1125.17;999.90;;;6.80;99.90;;;;;;5054572;28;20452;-90
2021/10/23 06:04:20;;;;;;;1142.97;999.90;;;6.80;99.90;;;;;;5052489;28;20517;-91
2021/10/23 06:06:55;;;;;;;1131.57;999.90;;;6.80;99.90;;;;;;5051522;28;20459;-89
2021/10/23 06:09:22;;;;;;;1136.23;999.90;;;7.00;99.90;;;;;;5050623;28;20478;-89
2021/10/23 06:11:55;;;;;;;1102.70;987.50;;;7.00;99.90;;;;;;5052416;28;20479;-89
2021/10/23 06:14:25;;;;;;;1117.43;999.90;;;6.90;99.90;;;;;;5051853;28;20462;-89
2021/10/23 06:16:52;;;;;;;1094.63;978.30;;;6.80;99.90;;;;;;5051247;28;20966;-87
2021/10/23 06:19:19;;;;;;;1105.80;989.17;;;6.80;99.90;;;;;;5052365;28;20947;-87
2021/10/23 06:21:46;;;;;;;1071.03;955.73;;;6.80;99.90;;;;;;5052328;28;20451;-89
2021/10/23 06:24:41;;;;;;;1078.83;963.73;;;6.90;99.90;;;;;;5052150;28;20491;-84
2021/10/23 06:27:08;;;;;;;1091.47;976.27;;;7.00;99.90;;;;;;5037746;28;20824;-87
2021/10/23 06:29:35;;;;;;;1079.53;963.03;;;7.40;99.90;;;;;;5052213;28;20486;-87
2021/10/23 06:32:11;;;;;;;1060.70;946.60;;;7.40;99.90;;;;;;5051443;28;20462;-86
2021/10/23 06:34:41;;;;;;;1048.97;936.67;;;7.60;99.90;;;;;;5052550;28;20530;-88
2021/10/23 06:37:19;;;;;;;1059.67;947.30;;;7.70;99.90;;;;;;5052509;28;20451;-87
2021/10/23 06:39:50;;;;;;;1060.90;947.20;;;7.70;99.90;;;;;;5052547;28;20867;-89
2021/10/23 06:42:17;;;;;;;1068.03;955.63;;;7.80;99.90;;;;;;5053160;28;20503;-91
2021/10/23 06:44:46;;;;;;;1058.83;946.93;;;7.90;99.90;;;;;;5054246;28;20486;-90
2021/10/23 06:47:19;;;;;;;1057.43;945.83;;;8.00;99.90;;;;;;5057073;28;20458;-91
2021/10/23 06:50:03;;;;;;;1076.53;964.43;;;8.00;99.90;;;;;;5053973;28;20509;-87
2021/10/23 06:52:35;;;;;;;1057.10;946.27;;;8.00;99.90;;;;;;5055824;28;20479;-87
2021/10/23 06:55:05;;;;;;;1047.80;936.70;;;8.10;99.90;;;;;;5055711;28;20849;-87
2021/10/23 06:57:32;;;;;;;1051.50;941.97;;;8.20;99.90;;;;;;5055533;28;20447;-87
2021/10/23 06:59:59;;;;;;;1028.53;920.60;;;8.20;99.90;;;;;;5055240;28;20525;-87
2021/10/23 07:02:26;;;;;;;1036.47;928.87;;;8.30;99.90;;;;;;5055255;28;20502;-87
2021/10/23 07:04:53;;;;;;;1043.40;936.37;;;8.40;99.90;;;;;;5055250;28;20495;-86
2021/10/23 07:07:23;;;;;;;1041.33;936.13;;;8.50;99.90;;;;;;5055607;28;20452;-87
2021/10/23 07:09:52;;;;;;;1049.00;942.60;;;8.40;99.90;;;;;;5055263;28;20459;-88
2021/10/23 07:12:21;;;;;;;1033.57;929.70;;;8.70;99.90;;;;;;5055450;28;20505;-87
2021/10/23 07:15:05;;;;;;;1026.23;923.97;;;8.70;99.90;;;;;;5055664;28;20483;-87
2021/10/23 07:17:53;;;;;;;989.00;890.03;;;8.70;99.90;;;;;;5056889;28;20454;-90
2021/10/23 07:20:25;;;;;;;1015.30;914.50;;;8.70;99.90;;;;;;5023335;28;20800;-93
2021/10/23 07:36:16;;;;;;;;;;;;;;;;;;;;;
2021/10/23 07:38:53;;;;;;;886.80;800.53;;;9.10;99.90;;;;;;4976777;28;20510;-94
2021/10/23 07:42:24;;;;;;;;;;;;;;;;;;;;;
2021/10/23 07:51:28;;;;;;;;;;;;;;;;;;;;;
2021/10/23 07:54:09;;;;;;;;;;;;;;;;;;;;;
2021/10/23 07:56:39;;;;;;;860.90;791.20;;;9.90;99.90;;;;;;5009524;28;20466;-94
2021/10/23 07:59:26;;;;;;;832.27;767.77;;;10.10;99.90;;;;;;5055226;28;20498;-94
2021/10/23 08:01:54;;;;;;;793.40;738.83;;;10.10;99.90;;;;;;5053736;28;20969;-94
2021/10/23 08:04:30;;;;;;;797.20;741.53;;;10.20;99.90;;;;;;5054782;28;20493;-92
2021/10/23 08:07:04;;;;;;;780.53;728.37;;;10.20;99.90;;;;;;5055181;28;20864;-91
2021/10/23 08:12:31;;;;;;;753.40;705.13;;;10.40;99.90;;;;;;5044518;28;20459;-91
2021/10/23 08:17:45;;;;;;;625.83;592.80;;;10.60;99.90;;;;;;5046384;28;20970;-90
2021/10/23 08:20:14;;;;;;;556.47;527.53;;;10.80;99.90;;;;;;5054094;28;20501;-88
2021/10/23 08:22:47;;;;;;;486.63;462.53;;;10.80;99.90;;;;;;5054263;28;20460;-87
2021/10/23 08:25:16;;;;;;;553.97;525.47;;;10.90;99.90;;;;;;5053261;28;20550;-88
2021/10/23 08:27:43;;;;;;;224.80;214.47;;;11.10;99.90;;;;;;5053898;28;20307;-88
2021/10/23 08:30:13;;;;;;;140.27;132.27;;;11.30;99.90;;;;;;5052971;28;21098;-88
2021/10/23 08:32:42;;;;;;;109.60;102.73;;;11.40;99.90;;;;;;5053921;28;21013;-89
2021/10/23 08:35:10;;;;;;;87.53;81.97;;;11.50;99.90;;;;;;5053790;28;20463;-89
2021/10/23 08:37:37;;;;;;;81.60;75.40;;;11.70;99.90;;;;;;5054027;28;20451;-89
2021/10/23 08:40:09;;;;;;;72.90;68.47;;;11.70;99.90;;;;;;5053765;28;20547;-88
2021/10/23 08:42:36;;;;;;;103.80;97.63;;;11.90;99.90;;;;;;5053229;28;20958;-88
2021/10/23 08:45:07;;;;;;;48.33;44.63;;;12.20;99.90;;;;;;5052467;28;20483;-89
2021/10/23 08:47:38;;;;;;;53.37;48.90;;;12.30;99.90;;;;;;5053865;28;20459;-89
2021/10/23 08:50:08;;;;;;;59.10;54.87;;;12.30;99.90;;;;;;5053420;28;20456;-89
2021/10/23 08:52:35;;;;;;;59.63;55.13;;;12.50;99.90;;;;;;5053273;28;20510;-89
2021/10/23 08:55:03;;;;;;;49.07;42.70;;;12.70;99.10;;;;;;5053325;28;20467;-88
2021/10/23 08:57:31;;;;;;;49.20;45.30;;;12.90;98.80;;;;;;5053349;28;20513;-88
2021/10/23 09:00:01;;;;;;;60.73;56.30;;;12.60;95.40;;;;;;5053057;28;20452;-88
2021/10/23 09:02:29;;;;;;;79.60;74.03;;;12.50;96.40;;;;;;5053274;28;21014;-89
2021/10/23 09:04:58;;;;;;;50.17;46.37;;;12.70;99.90;;;;;;5053126;28;20498;-89
2021/10/23 09:07:27;;;;;;;40.60;37.10;;;12.90;96.00;;;;;;5053074;28;20443;-87
2021/10/23 09:09:57;;;;;;;47.73;44.23;;;13.00;96.50;;;;;;5040333;28;20468;-88
2021/10/23 09:12:27;;;;;;;37.67;34.83;;;13.00;93.40;;;;;;5052987;28;20456;-89
2021/10/23 09:15:05;;;;;;;31.83;27.33;;;12.80;92.20;;;;;;5052927;28;20462;-88
2021/10/23 09:17:35;;;;;;;29.57;26.30;;;13.00;92.20;;;;;;5053316;28;20582;-89
2021/10/23 09:20:09;;;;;;;29.77;27.27;;;13.10;92.20;;;;;;5053291;28;20487;-88
2021/10/23 09:22:44;;;;;;;34.23;31.03;;;13.20;91.60;;;;;;5053024;28;20965;-89
2021/10/23 09:25:16;;;;;;;29.23;26.33;;;13.60;92.50;;;;;;5040175;28;20487;-87
2021/10/23 09:27:55;;;;;;;24.40;21.90;;;13.60;86.30;;;;;;5033088;28;20464;-89
2021/10/23 09:30:30;;;;;;;23.27;17.53;;;13.70;85.30;;;;;;5032042;28;20573;-88
2021/10/23 09:33:06;;;;;;;26.90;17.73;;;13.70;81.90;;;;;;5033044;28;20445;-89
2021/10/23 09:35:35;;;;;;;29.53;18.87;;;14.20;80.80;;;;;;5033150;28;20502;-90
2021/10/23 09:38:23;;;;;;;22.03;18.10;;;14.40;83.40;;;;;;5033085;28;20867;-89
2021/10/23 09:43:34;;;;;;;18.10;10.87;;;14.60;77.70;;;;;;5031214;28;20483;-89
2021/10/23 09:46:08;;;;;;;15.00;9.70;;;14.50;74.10;;;;;;5031720;28;20523;-88
2021/10/23 09:48:48;;;;;;;17.93;13.97;;;14.60;71.30;;;;;;5032782;28;20824;-87
2021/10/23 09:54:30;;;;;;;19.23;8.10;;;14.70;73.30;;;;;;5012514;28;20470;-86
2021/10/23 09:57:08;;;;;;;23.10;11.43;;;15.00;65.50;;;;;;5032743;28;20510;-87
2021/10/23 09:59:38;;;;;;;18.00;13.57;;;15.30;68.20;;;;;;5032561;28;20503;-88
2021/10/23 10:02:34;;;;;;;16.13;9.80;;;15.50;68.90;;;;;;5031857;28;20848;-88
2021/10/23 10:05:04;;;;;;;12.23;7.20;;;15.20;63.00;;;;;;5032778;28;20499;-89
2021/10/23 10:07:33;;;;;;;14.40;8.53;;;14.50;61.00;;;;;;5033410;28;20462;-92
2021/10/23 10:10:43;;;;;;;;;;;;;;;;;;;;;
2021/10/23 10:16:36;;;;;;;;;;;;;;;;;;;;;
2021/10/23 10:22:20;;;;;;;13.07;8.43;;;14.80;61.50;;;;;;5033406;28;20553;-90
2021/10/23 10:25:26;;;;;;;17.23;10.83;;;14.80;64.30;;;;;;5053610;28;20834;-89
2021/10/23 10:32:17;;;;;;;18.50;8.60;;;14.90;63.70;;;;;;4915933;29;20549;-85
2021/10/23 10:35:55;;;;;;;18.87;9.43;;;14.50;61.80;;;;;;4994650;28;20510;-85
2021/10/23 12:40:04;;;;;;;13.63;5.97;;;14.60;60.20;;;;;;5359413;22;20537;-83
2021/10/23 12:43:03;;;;;;;14.60;6.23;;;14.40;60.60;;;;;;5053758;28;20934;-85
2021/10/23 12:46:06;;;;;;;;;;;;;;;;;;;;;
2021/10/23 12:48:38;;;;;;;14.77;6.80;;;14.30;62.30;;;;;;5052539;28;20447;-84
2021/10/23 12:51:31;;;;;;;11.23;5.70;;;14.20;60.10;;;;;;5053550;28;20463;-84
2021/10/23 12:54:04;;;;;;;12.30;7.13;;;14.20;61.80;;;;;;5045641;28;20459;-85
2021/10/23 12:56:40;;;;;;;31.73;7.57;;;14.10;64.40;;;;;;5053067;28;20942;-85
2021/10/23 12:59:18;;;;;;;11.93;5.90;;;13.90;62.50;;;;;;5053033;28;20461;-85
2021/10/23 13:02:13;;;;;;;12.87;5.47;;;13.90;62.80;;;;;;5051965;28;20458;-85
2021/10/23 13:04:52;;;;;;;15.10;5.80;;;13.80;61.20;;;;;;5053293;28;20525;-85
2021/10/23 13:07:43;;;;;;;10.40;5.87;;;13.80;64.50;;;;;;5052968;28;20490;-85
2021/10/23 13:10:14;;;;;;;19.40;7.03;;;13.70;65.80;;;;;;4952545;29;20475;-85
2021/10/23 13:12:51;;;;;;;19.10;7.47;;;13.70;67.10;;;;;;5019491;28;20500;-82
2021/10/23 13:15:23;;;;;;;16.23;7.80;;;13.50;68.90;;;;;;5052557;28;20443;-85
2021/10/23 13:18:17;;;;;;;12.93;6.67;;;13.50;69.50;;;;;;5051287;28;21095;-86
2021/10/23 13:21:09;;;;;;;16.17;7.33;;;13.60;70.00;;;;;;5052145;28;20478;-85
2021/10/23 13:23:51;;;;;;;12.90;6.50;;;13.50;69.50;;;;;;5048661;28;20443;-86
2021/10/23 13:26:33;;;;;;;10.60;7.13;;;13.50;69.00;;;;;;5051431;28;20546;-85
2021/10/23 13:39:11;;;;;;;8.70;4.57;;;13.40;63.80;;;;;;4784193;29;21055;-85
2021/10/23 13:41:40;;;;;;;11.47;3.90;;;13.50;64.20;;;;;;4932210;29;20468;-86
2021/10/23 13:47:38;;;;;;;12.87;3.90;;;13.50;64.20;;;;;;4971393;28;20556;-86
2021/10/23 13:50:36;;;;;;;8.70;3.80;;;13.50;64.20;;;;;;4990129;28;20485;-85
2021/10/23 13:53:03;;;;;;;14.83;4.20;;;13.60;63.50;;;;;;5001984;28;20451;-86
2021/10/23 13:56:16;;;;;;;11.80;3.57;;;13.60;61.20;;;;;;5049614;28;20447;-85
2021/10/23 14:02:20;;;;;;;11.00;2.80;;;13.60;61.70;;;;;;5033027;28;20566;-87
2021/10/23 14:04:51;;;;;;;10.93;3.60;;;13.30;61.30;;;;;;5055868;28;20890;-89
2021/10/23 14:07:32;;;;;;;8.20;3.93;;;13.60;64.30;;;;;;5055702;28;20858;-90
2021/10/23 14:10:22;;;;;;;10.80;4.67;;;13.40;63.40;;;;;;5055450;28;20460;-88
2021/10/23 14:12:51;;;;;;;16.23;4.17;;;13.60;63.70;;;;;;5055444;28;20456;-87
2021/10/23 14:15:31;;;;;;;13.00;4.90;;;13.50;64.20;;;;;;5054211;28;20456;-86
2021/10/23 14:21:08;;;;;;;;;;;;;;;;;;;;;
2021/10/23 14:23:55;;;;;;;11.63;4.40;;;13.40;65.30;;;;;;5055400;28;20453;-89
2021/10/23 14:26:34;;;;;;;11.10;3.73;;;13.10;64.00;;;;;;5057762;28;20549;-84
2021/10/23 14:38:26;;;;;;;9.47;3.70;;;12.90;63.60;;;;;;5082975;22;20495;-88
2021/10/23 14:44:57;;;;;;;10.27;3.90;;;13.20;63.90;;;;;;5025894;28;20852;-89
2021/10/23 14:51:02;;;;;;;14.13;5.50;;;13.20;67.50;;;;;;4930653;28;20467;-86
2021/10/23 14:53:47;;;;;;;9.37;4.20;;;13.10;68.80;;;;;;5014528;28;21007;-85
2021/10/23 14:56:27;;;;;;;18.63;5.00;;;13.10;69.10;;;;;;5014417;28;20456;-85
2021/10/23 15:06:23;;;;;;;12.20;4.13;;;12.80;67.60;;;;;;4934429;29;20615;-83
2021/10/23 15:12:23;;;;;;;9.33;6.00;;;12.70;73.40;;;;;;4933393;29;20461;-88
2021/10/23 15:15:45;;;;;;;16.30;6.57;;;12.60;74.80;;;;;;4949127;28;20885;-87
2021/10/23 15:51:55;;;;;;;;;;;;;;;;;;;;;
2021/10/23 15:54:49;;;;;;;;;;;;;;;;;;;;;
2021/10/23 15:58:39;;;;;;;;;;;;;;;;;;;;;
2021/10/23 16:13:45;;;;;;;27.37;24.50;;;10.70;99.00;;;;;;4641922;26;20516;-87
2021/10/23 16:17:08;;;;;;;;;;;;;;;;;;;;;
2021/10/23 16:20:16;;;;;;;71.27;67.57;;;10.10;99.90;;;;;;4917500;28;20459;-86
2021/10/23 16:29:19;;;;;;;46.40;42.90;;;9.70;99.90;;;;;;5563865;23;20485;-86
2021/10/23 16:32:46;;;;;;;;;;;;;;;;;;;;;
2021/10/23 16:45:36;;;;;;;284.13;273.70;;;8.90;99.90;;;;;;4990051;28;20500;-89
2021/10/23 16:51:39;;;;;;;375.50;360.60;;;8.50;99.90;;;;;;4950493;28;20955;-86
2021/10/23 16:54:29;;;;;;;373.37;357.77;;;8.30;99.90;;;;;;4951900;29;20939;-85
2021/10/23 16:57:16;;;;;;;;;;;;;;;;;;;;;
2021/10/23 17:02:41;;;;;;;497.07;474.37;;;7.60;99.90;;;;;;4895427;29;20455;-88
2021/10/23 17:05:15;;;;;;;492.03;469.83;;;7.60;99.90;;;;;;4974628;28;20510;-86
2021/10/23 17:07:42;;;;;;;573.03;544.00;;;7.30;99.90;;;;;;4974164;28;20491;-86
2021/10/23 17:13:30;;;;;;;649.00;612.77;;;7.30;99.90;;;;;;4858260;29;20857;-87
2021/10/23 17:16:19;;;;;;;652.13;614.53;;;7.00;99.90;;;;;;4857293;29;20966;-88
2021/10/23 17:19:08;;;;;;;668.10;629.43;;;7.00;99.90;;;;;;4965002;28;20530;-90
2021/10/23 17:21:52;;;;;;;711.43;666.13;;;6.90;99.90;;;;;;4990377;28;20455;-88
2021/10/23 17:28:13;;;;;;;724.13;677.83;;;6.70;99.90;;;;;;4887263;29;20472;-87
2021/10/23 17:31:09;;;;;;;725.53;679.77;;;6.70;99.90;;;;;;4912450;29;20556;-85
2021/10/23 17:39:31;;;;;;;757.93;704.30;;;6.60;99.90;;;;;;4830377;29;20445;-89
2021/10/23 17:44:49;;;;;;;760.80;706.93;;;6.50;99.90;;;;;;4926814;28;20447;-88
2021/10/23 17:47:19;;;;;;;771.57;717.60;;;6.50;99.90;;;;;;4970063;28;20490;-85
2021/10/23 17:53:22;;;;;;;787.57;732.93;;;6.40;99.90;;;;;;4958920;28;20451;-87
2021/10/23 17:56:01;;;;;;;780.77;725.93;;;6.30;99.90;;;;;;4981530;28;20512;-86
2021/10/23 17:58:43;;;;;;;775.50;722.30;;;6.30;99.90;;;;;;4990684;28;20478;-88
2021/10/23 18:01:29;;;;;;;766.07;712.20;;;6.20;99.90;;;;;;4991173;28;20454;-88
2021/10/23 18:04:09;;;;;;;766.37;713.23;;;6.20;99.90;;;;;;4992153;28;20458;-88
2021/10/23 18:10:15;;;;;;;763.50;711.10;;;6.00;99.90;;;;;;4972995;28;20934;-85